sensor_id;sensor_type;location;lat;lon;timestamp;P1;durP1;ratioP1;P2;durP2;ratioP2
48925;SDS011;39838;59.938;30.642;2024-03-08T00:00:46;18.92;;;10.00;;
48925;SDS011;39838;59.938;30.642;2024-03-08T00:03:14;16.85;;;9.25;;
48925;SDS011;39838;59.938;30.642;2024-03-08T00:05:42;17.50;;;9.55;;
48925;SDS011;39838;59.938;30.642;2024-03-08T00:08:09;17.10;;;9.32;;
48925;SDS011;39838;59.938;30.642;2024-03-08T00:10:36;18.67;;;9.45;;
48925;SDS011;39838;59.938;30.642;2024-03-08T00:13:04;18.55;;;9.55;;
48925;SDS011;39838;59.938;30.642;2024-03-08T00:15:31;21.40;;;10.30;;
48925;SDS011;39838;59.938;30.642;2024-03-08T00:17:59;17.38;;;9.48;;
48925;SDS011;39838;59.938;30.642;2024-03-08T00:20:27;20.85;;;10.75;;
48925;SDS011;39838;59.938;30.642;2024-03-08T00:22:54;17.40;;;9.55;;
48925;SDS011;39838;59.938;30.642;2024-03-08T00:25:23;21.77;;;10.80;;
48925;SDS011;39838;59.938;30.642;2024-03-08T00:27:51;21.38;;;10.88;;
48925;SDS011;39838;59.938;30.642;2024-03-08T00:30:21;20.35;;;10.18;;
48925;SDS011;39838;59.938;30.642;2024-03-08T00:32:49;19.48;;;10.02;;
48925;SDS011;39838;59.938;30.642;2024-03-08T00:35:16;20.10;;;9.48;;
48925;SDS011;39838;59.938;30.642;2024-03-08T00:37:45;18.02;;;10.02;;
48925;SDS011;39838;59.938;30.642;2024-03-08T00:40:13;21.13;;;10.68;;
48925;SDS011;39838;59.938;30.642;2024-03-08T00:42:40;19.67;;;10.75;;
48925;SDS011;39838;59.938;30.642;2024-03-08T00:45:09;23.27;;;10.82;;
48925;SDS011;39838;59.938;30.642;2024-03-08T00:47:36;18.95;;;10.55;;
48925;SDS011;39838;59.938;30.642;2024-03-08T00:50:04;19.38;;;9.93;;
48925;SDS011;39838;59.938;30.642;2024-03-08T00:52:33;20.85;;;11.07;;
48925;SDS011;39838;59.938;30.642;2024-03-08T00:55:02;19.20;;;10.65;;
48925;SDS011;39838;59.938;30.642;2024-03-08T00:57:29;23.50;;;11.30;;
48925;SDS011;39838;59.938;30.642;2024-03-08T00:59:56;21.65;;;10.90;;
48925;SDS011;39838;59.938;30.642;2024-03-08T01:02:24;19.63;;;10.32;;
48925;SDS011;39838;59.938;30.642;2024-03-08T01:04:51;22.63;;;10.77;;
48925;SDS011;39838;59.938;30.642;2024-03-08T01:07:18;19.83;;;9.77;;
48925;SDS011;39838;59.938;30.642;2024-03-08T01:09:45;21.33;;;10.70;;
48925;SDS011;39838;59.938;30.642;2024-03-08T01:12:14;18.95;;;10.35;;
48925;SDS011;39838;59.938;30.642;2024-03-08T01:14:41;20.58;;;10.30;;
48925;SDS011;39838;59.938;30.642;2024-03-08T01:17:08;22.65;;;10.30;;
48925;SDS011;39838;59.938;30.642;2024-03-08T01:19:37;19.25;;;9.85;;
48925;SDS011;39838;59.938;30.642;2024-03-08T01:22:04;20.88;;;10.18;;
48925;SDS011;39838;59.938;30.642;2024-03-08T01:24:32;23.25;;;9.88;;
48925;SDS011;39838;59.938;30.642;2024-03-08T01:27:00;20.33;;;11.45;;
48925;SDS011;39838;59.938;30.642;2024-03-08T01:29:29;18.20;;;9.73;;
48925;SDS011;39838;59.938;30.642;2024-03-08T01:31:57;19.77;;;9.90;;
48925;SDS011;39838;59.938;30.642;2024-03-08T01:34:27;17.98;;;9.63;;
48925;SDS011;39838;59.938;30.642;2024-03-08T01:36:54;17.42;;;9.20;;
48925;SDS011;39838;59.938;30.642;2024-03-08T01:39:22;15.93;;;8.63;;
48925;SDS011;39838;59.938;30.642;2024-03-08T01:41:49;16.35;;;8.23;;
48925;SDS011;39838;59.938;30.642;2024-03-08T01:44:16;15.75;;;7.55;;
48925;SDS011;39838;59.938;30.642;2024-03-08T01:46:45;14.90;;;7.47;;
48925;SDS011;39838;59.938;30.642;2024-03-08T01:49:13;14.30;;;7.38;;
48925;SDS011;39838;59.938;30.642;2024-03-08T01:51:43;13.20;;;7.55;;
48925;SDS011;39838;59.938;30.642;2024-03-08T01:54:10;13.70;;;7.88;;
48925;SDS011;39838;59.938;30.642;2024-03-08T01:56:39;14.32;;;7.40;;
48925;SDS011;39838;59.938;30.642;2024-03-08T01:59:07;12.15;;;6.80;;
48925;SDS011;39838;59.938;30.642;2024-03-08T02:01:34;11.77;;;6.10;;
48925;SDS011;39838;59.938;30.642;2024-03-08T02:04:03;12.57;;;6.75;;
48925;SDS011;39838;59.938;30.642;2024-03-08T02:06:32;11.30;;;6.47;;
48925;SDS011;39838;59.938;30.642;2024-03-08T02:08:59;11.25;;;6.43;;
48925;SDS011;39838;59.938;30.642;2024-03-08T02:11:31;10.65;;;6.72;;
48925;SDS011;39838;59.938;30.642;2024-03-08T02:13:58;10.50;;;6.10;;
48925;SDS011;39838;59.938;30.642;2024-03-08T02:16:26;10.70;;;6.32;;
48925;SDS011;39838;59.938;30.642;2024-03-08T02:18:53;11.10;;;6.72;;
48925;SDS011;39838;59.938;30.642;2024-03-08T02:21:23;11.63;;;6.30;;
48925;SDS011;39838;59.938;30.642;2024-03-08T02:23:50;11.25;;;5.85;;
48925;SDS011;39838;59.938;30.642;2024-03-08T02:26:18;8.93;;;5.25;;
48925;SDS011;39838;59.938;30.642;2024-03-08T02:28:46;9.95;;;5.80;;
48925;SDS011;39838;59.938;30.642;2024-03-08T02:31:14;8.98;;;5.50;;
48925;SDS011;39838;59.938;30.642;2024-03-08T02:33:41;9.95;;;6.00;;
48925;SDS011;39838;59.938;30.642;2024-03-08T02:36:09;10.75;;;6.10;;
48925;SDS011;39838;59.938;30.642;2024-03-08T02:38:38;10.45;;;6.22;;
48925;SDS011;39838;59.938;30.642;2024-03-08T02:41:07;9.93;;;5.95;;
48925;SDS011;39838;59.938;30.642;2024-03-08T02:43:35;9.73;;;5.80;;
48925;SDS011;39838;59.938;30.642;2024-03-08T02:46:03;9.88;;;5.25;;
48925;SDS011;39838;59.938;30.642;2024-03-08T02:48:30;11.55;;;5.65;;
48925;SDS011;39838;59.938;30.642;2024-03-08T02:50:57;9.75;;;5.20;;
48925;SDS011;39838;59.938;30.642;2024-03-08T02:53:24;8.93;;;5.22;;
48925;SDS011;39838;59.938;30.642;2024-03-08T02:55:54;10.00;;;5.50;;
48925;SDS011;39838;59.938;30.642;2024-03-08T02:58:21;7.80;;;4.85;;
48925;SDS011;39838;59.938;30.642;2024-03-08T03:00:49;9.15;;;4.82;;
48925;SDS011;39838;59.938;30.642;2024-03-08T03:03:16;7.78;;;5.10;;
48925;SDS011;39838;59.938;30.642;2024-03-08T03:05:43;8.15;;;4.72;;
48925;SDS011;39838;59.938;30.642;2024-03-08T03:08:10;8.60;;;4.75;;
48925;SDS011;39838;59.938;30.642;2024-03-08T03:10:38;9.45;;;5.28;;
48925;SDS011;39838;59.938;30.642;2024-03-08T03:13:07;8.90;;;4.78;;
48925;SDS011;39838;59.938;30.642;2024-03-08T03:15:34;7.88;;;5.10;;
48925;SDS011;39838;59.938;30.642;2024-03-08T03:18:01;8.70;;;4.63;;
48925;SDS011;39838;59.938;30.642;2024-03-08T03:20:29;7.90;;;4.65;;
48925;SDS011;39838;59.938;30.642;2024-03-08T03:23:02;7.50;;;4.70;;
48925;SDS011;39838;59.938;30.642;2024-03-08T03:25:30;8.30;;;4.85;;
48925;SDS011;39838;59.938;30.642;2024-03-08T03:28:00;6.72;;;4.40;;
48925;SDS011;39838;59.938;30.642;2024-03-08T03:30:29;7.10;;;4.43;;
48925;SDS011;39838;59.938;30.642;2024-03-08T03:32:59;5.68;;;3.95;;
48925;SDS011;39838;59.938;30.642;2024-03-08T03:35:27;6.72;;;4.55;;
48925;SDS011;39838;59.938;30.642;2024-03-08T03:37:54;7.75;;;4.40;;
48925;SDS011;39838;59.938;30.642;2024-03-08T03:40:33;6.18;;;4.20;;
48925;SDS011;39838;59.938;30.642;2024-03-08T03:43:01;7.45;;;4.30;;
48925;SDS011;39838;59.938;30.642;2024-03-08T03:45:30;6.03;;;4.10;;
48925;SDS011;39838;59.938;30.642;2024-03-08T03:48:01;9.68;;;4.40;;
48925;SDS011;39838;59.938;30.642;2024-03-08T03:50:29;7.75;;;4.57;;
48925;SDS011;39838;59.938;30.642;2024-03-08T03:53:00;6.43;;;3.88;;
48925;SDS011;39838;59.938;30.642;2024-03-08T03:55:28;6.43;;;4.00;;
48925;SDS011;39838;59.938;30.642;2024-03-08T03:57:55;6.20;;;3.58;;
48925;SDS011;39838;59.938;30.642;2024-03-08T04:00:24;5.10;;;3.50;;
48925;SDS011;39838;59.938;30.642;2024-03-08T04:02:54;6.10;;;4.13;;
48925;SDS011;39838;59.938;30.642;2024-03-08T04:05:24;6.72;;;4.32;;
48925;SDS011;39838;59.938;30.642;2024-03-08T04:07:52;6.13;;;3.90;;
48925;SDS011;39838;59.938;30.642;2024-03-08T04:10:19;6.03;;;4.00;;
48925;SDS011;39838;59.938;30.642;2024-03-08T04:12:46;7.82;;;3.70;;
48925;SDS011;39838;59.938;30.642;2024-03-08T04:15:13;5.93;;;4.20;;
48925;SDS011;39838;59.938;30.642;2024-03-08T04:17:41;8.55;;;3.90;;
48925;SDS011;39838;59.938;30.642;2024-03-08T04:20:09;5.30;;;3.78;;
48925;SDS011;39838;59.938;30.642;2024-03-08T04:22:39;6.00;;;3.50;;
48925;SDS011;39838;59.938;30.642;2024-03-08T04:25:07;6.28;;;3.92;;
48925;SDS011;39838;59.938;30.642;2024-03-08T04:27:35;7.55;;;3.90;;
48925;SDS011;39838;59.938;30.642;2024-03-08T04:30:03;5.90;;;4.03;;
48925;SDS011;39838;59.938;30.642;2024-03-08T04:32:33;5.53;;;3.60;;
48925;SDS011;39838;59.938;30.642;2024-03-08T04:35:00;5.75;;;3.85;;
48925;SDS011;39838;59.938;30.642;2024-03-08T04:37:32;5.78;;;3.80;;
48925;SDS011;39838;59.938;30.642;2024-03-08T04:39:59;5.43;;;3.60;;
48925;SDS011;39838;59.938;30.642;2024-03-08T04:42:29;5.60;;;3.88;;
48925;SDS011;39838;59.938;30.642;2024-03-08T04:44:58;5.32;;;3.63;;
48925;SDS011;39838;59.938;30.642;2024-03-08T04:47:25;5.40;;;3.67;;
48925;SDS011;39838;59.938;30.642;2024-03-08T04:49:53;5.57;;;3.60;;
48925;SDS011;39838;59.938;30.642;2024-03-08T04:52:20;5.88;;;3.70;;
48925;SDS011;39838;59.938;30.642;2024-03-08T04:54:50;5.13;;;3.60;;
48925;SDS011;39838;59.938;30.642;2024-03-08T04:57:17;4.60;;;3.40;;
48925;SDS011;39838;59.938;30.642;2024-03-08T04:59:44;5.28;;;3.55;;
48925;SDS011;39838;59.938;30.642;2024-03-08T05:02:11;5.18;;;3.33;;
48925;SDS011;39838;59.938;30.642;2024-03-08T05:04:39;5.47;;;3.63;;
48925;SDS011;39838;59.938;30.642;2024-03-08T05:07:07;5.75;;;3.55;;
48925;SDS011;39838;59.938;30.642;2024-03-08T05:09:35;7.10;;;3.30;;
48925;SDS011;39838;59.938;30.642;2024-03-08T05:12:04;6.22;;;3.75;;
48925;SDS011;39838;59.938;30.642;2024-03-08T05:14:33;7.38;;;3.50;;
48925;SDS011;39838;59.938;30.642;2024-03-08T05:17:00;5.72;;;3.42;;
48925;SDS011;39838;59.938;30.642;2024-03-08T05:19:28;5.68;;;3.53;;
48925;SDS011;39838;59.938;30.642;2024-03-08T05:21:55;5.85;;;3.55;;
48925;SDS011;39838;59.938;30.642;2024-03-08T05:24:23;5.82;;;3.60;;
48925;SDS011;39838;59.938;30.642;2024-03-08T05:26:50;6.30;;;3.78;;
48925;SDS011;39838;59.938;30.642;2024-03-08T05:29:19;5.03;;;3.50;;
48925;SDS011;39838;59.938;30.642;2024-03-08T05:31:47;5.63;;;3.55;;
48925;SDS011;39838;59.938;30.642;2024-03-08T05:34:16;6.07;;;3.05;;
48925;SDS011;39838;59.938;30.642;2024-03-08T05:36:44;5.88;;;3.67;;
48925;SDS011;39838;59.938;30.642;2024-03-08T05:39:12;4.70;;;3.20;;
48925;SDS011;39838;59.938;30.642;2024-03-08T05:41:39;4.72;;;3.47;;
48925;SDS011;39838;59.938;30.642;2024-03-08T05:44:07;5.10;;;3.30;;
48925;SDS011;39838;59.938;30.642;2024-03-08T05:46:35;5.57;;;3.38;;
48925;SDS011;39838;59.938;30.642;2024-03-08T05:49:03;6.03;;;3.72;;
48925;SDS011;39838;59.938;30.642;2024-03-08T05:51:31;4.50;;;3.28;;
48925;SDS011;39838;59.938;30.642;2024-03-08T05:54:00;5.45;;;3.25;;
48925;SDS011;39838;59.938;30.642;2024-03-08T05:56:28;6.03;;;3.25;;
48925;SDS011;39838;59.938;30.642;2024-03-08T05:58:55;5.70;;;3.50;;
48925;SDS011;39838;59.938;30.642;2024-03-08T06:01:23;5.78;;;3.38;;
48925;SDS011;39838;59.938;30.642;2024-03-08T06:03:53;5.63;;;3.13;;
48925;SDS011;39838;59.938;30.642;2024-03-08T06:06:21;6.00;;;3.08;;
48925;SDS011;39838;59.938;30.642;2024-03-08T06:08:48;4.40;;;3.00;;
48925;SDS011;39838;59.938;30.642;2024-03-08T06:11:16;4.40;;;3.25;;
48925;SDS011;39838;59.938;30.642;2024-03-08T06:13:44;5.53;;;3.20;;
48925;SDS011;39838;59.938;30.642;2024-03-08T06:16:11;5.38;;;3.13;;
48925;SDS011;39838;59.938;30.642;2024-03-08T06:18:38;4.35;;;2.97;;
48925;SDS011;39838;59.938;30.642;2024-03-08T06:21:06;4.80;;;3.10;;
48925;SDS011;39838;59.938;30.642;2024-03-08T06:23:35;5.30;;;3.47;;
48925;SDS011;39838;59.938;30.642;2024-03-08T06:26:03;4.25;;;2.72;;
48925;SDS011;39838;59.938;30.642;2024-03-08T06:28:31;4.65;;;3.38;;
48925;SDS011;39838;59.938;30.642;2024-03-08T06:30:58;5.10;;;3.13;;
48925;SDS011;39838;59.938;30.642;2024-03-08T06:33:26;5.10;;;3.13;;
48925;SDS011;39838;59.938;30.642;2024-03-08T06:35:53;4.78;;;3.03;;
48925;SDS011;39838;59.938;30.642;2024-03-08T06:38:24;4.15;;;3.00;;
48925;SDS011;39838;59.938;30.642;2024-03-08T06:40:51;5.07;;;3.20;;
48925;SDS011;39838;59.938;30.642;2024-03-08T06:43:20;6.72;;;2.90;;
48925;SDS011;39838;59.938;30.642;2024-03-08T06:45:47;5.38;;;3.00;;
48925;SDS011;39838;59.938;30.642;2024-03-08T06:48:15;5.00;;;3.33;;
48925;SDS011;39838;59.938;30.642;2024-03-08T06:50:42;5.90;;;2.92;;
48925;SDS011;39838;59.938;30.642;2024-03-08T06:53:11;4.25;;;3.08;;
48925;SDS011;39838;59.938;30.642;2024-03-08T06:55:40;3.97;;;2.70;;
48925;SDS011;39838;59.938;30.642;2024-03-08T06:58:07;4.80;;;2.97;;
48925;SDS011;39838;59.938;30.642;2024-03-08T07:00:36;6.40;;;3.40;;
48925;SDS011;39838;59.938;30.642;2024-03-08T07:03:03;3.65;;;2.80;;
48925;SDS011;39838;59.938;30.642;2024-03-08T07:05:37;4.28;;;2.85;;
48925;SDS011;39838;59.938;30.642;2024-03-08T07:08:05;5.20;;;3.10;;
48925;SDS011;39838;59.938;30.642;2024-03-08T07:10:33;5.53;;;3.00;;
48925;SDS011;39838;59.938;30.642;2024-03-08T07:13:02;4.20;;;2.80;;
48925;SDS011;39838;59.938;30.642;2024-03-08T07:15:30;4.45;;;2.85;;
48925;SDS011;39838;59.938;30.642;2024-03-08T07:17:58;4.43;;;2.83;;
48925;SDS011;39838;59.938;30.642;2024-03-08T07:20:25;4.15;;;2.88;;
48925;SDS011;39838;59.938;30.642;2024-03-08T07:22:54;4.03;;;2.88;;
48925;SDS011;39838;59.938;30.642;2024-03-08T07:25:21;4.13;;;2.92;;
48925;SDS011;39838;59.938;30.642;2024-03-08T07:27:50;4.80;;;3.17;;
48925;SDS011;39838;59.938;30.642;2024-03-08T07:30:19;6.07;;;3.20;;
48925;SDS011;39838;59.938;30.642;2024-03-08T07:33:06;4.28;;;2.90;;
48925;SDS011;39838;59.938;30.642;2024-03-08T07:35:33;5.63;;;2.80;;
48925;SDS011;39838;59.938;30.642;2024-03-08T07:38:03;4.95;;;3.13;;
48925;SDS011;39838;59.938;30.642;2024-03-08T07:40:31;5.95;;;3.38;;
48925;SDS011;39838;59.938;30.642;2024-03-08T07:42:59;4.80;;;3.10;;
48925;SDS011;39838;59.938;30.642;2024-03-08T07:45:27;4.97;;;2.90;;
48925;SDS011;39838;59.938;30.642;2024-03-08T07:47:56;5.43;;;3.35;;
48925;SDS011;39838;59.938;30.642;2024-03-08T07:50:23;4.47;;;3.08;;
48925;SDS011;39838;59.938;30.642;2024-03-08T07:52:50;4.20;;;2.92;;
48925;SDS011;39838;59.938;30.642;2024-03-08T07:55:17;6.85;;;3.05;;
48925;SDS011;39838;59.938;30.642;2024-03-08T07:57:45;5.18;;;3.10;;
48925;SDS011;39838;59.938;30.642;2024-03-08T08:00:14;5.35;;;3.10;;
48925;SDS011;39838;59.938;30.642;2024-03-08T08:02:45;4.00;;;2.83;;
48925;SDS011;39838;59.938;30.642;2024-03-08T08:05:15;4.45;;;3.13;;
48925;SDS011;39838;59.938;30.642;2024-03-08T08:07:44;5.38;;;3.17;;
48925;SDS011;39838;59.938;30.642;2024-03-08T08:10:12;3.85;;;2.75;;
48925;SDS011;39838;59.938;30.642;2024-03-08T08:12:44;5.28;;;2.95;;
48925;SDS011;39838;59.938;30.642;2024-03-08T08:15:12;6.30;;;2.88;;
48925;SDS011;39838;59.938;30.642;2024-03-08T08:17:40;4.65;;;3.08;;
48925;SDS011;39838;59.938;30.642;2024-03-08T08:20:10;3.95;;;2.58;;
48925;SDS011;39838;59.938;30.642;2024-03-08T08:22:38;3.25;;;2.40;;
48925;SDS011;39838;59.938;30.642;2024-03-08T08:25:06;4.47;;;2.63;;
48925;SDS011;39838;59.938;30.642;2024-03-08T08:27:33;3.72;;;2.70;;
48925;SDS011;39838;59.938;30.642;2024-03-08T08:30:02;3.90;;;2.83;;
48925;SDS011;39838;59.938;30.642;2024-03-08T08:32:33;4.75;;;3.00;;
48925;SDS011;39838;59.938;30.642;2024-03-08T08:35:01;4.10;;;2.90;;
48925;SDS011;39838;59.938;30.642;2024-03-08T08:37:31;4.25;;;2.70;;
48925;SDS011;39838;59.938;30.642;2024-03-08T08:40:01;5.07;;;2.97;;
48925;SDS011;39838;59.938;30.642;2024-03-08T08:42:34;4.75;;;3.08;;
48925;SDS011;39838;59.938;30.642;2024-03-08T08:45:01;4.80;;;2.90;;
48925;SDS011;39838;59.938;30.642;2024-03-08T08:47:30;4.47;;;2.88;;
48925;SDS011;39838;59.938;30.642;2024-03-08T08:49:57;5.03;;;2.80;;
48925;SDS011;39838;59.938;30.642;2024-03-08T08:52:24;5.25;;;3.22;;
48925;SDS011;39838;59.938;30.642;2024-03-08T08:54:53;4.72;;;2.97;;
48925;SDS011;39838;59.938;30.642;2024-03-08T08:57:20;4.63;;;2.70;;
48925;SDS011;39838;59.938;30.642;2024-03-08T08:59:47;4.20;;;2.67;;
48925;SDS011;39838;59.938;30.642;2024-03-08T09:02:15;5.78;;;3.00;;
48925;SDS011;39838;59.938;30.642;2024-03-08T09:04:46;4.15;;;2.85;;
48925;SDS011;39838;59.938;30.642;2024-03-08T09:07:14;4.47;;;2.95;;
48925;SDS011;39838;59.938;30.642;2024-03-08T09:09:44;6.78;;;3.03;;
48925;SDS011;39838;59.938;30.642;2024-03-08T09:12:12;4.32;;;3.00;;
48925;SDS011;39838;59.938;30.642;2024-03-08T09:14:40;5.07;;;2.78;;
48925;SDS011;39838;59.938;30.642;2024-03-08T09:17:07;6.05;;;2.85;;
48925;SDS011;39838;59.938;30.642;2024-03-08T09:19:35;4.60;;;2.47;;
48925;SDS011;39838;59.938;30.642;2024-03-08T09:22:02;3.60;;;2.70;;
48925;SDS011;39838;59.938;30.642;2024-03-08T09:24:30;3.85;;;3.05;;
48925;SDS011;39838;59.938;30.642;2024-03-08T09:26:57;5.03;;;3.17;;
48925;SDS011;39838;59.938;30.642;2024-03-08T09:29:26;5.03;;;3.38;;
48925;SDS011;39838;59.938;30.642;2024-03-08T09:31:54;4.45;;;2.72;;
48925;SDS011;39838;59.938;30.642;2024-03-08T09:34:21;5.40;;;2.90;;
48925;SDS011;39838;59.938;30.642;2024-03-08T09:36:49;4.97;;;2.78;;
48925;SDS011;39838;59.938;30.642;2024-03-08T09:39:17;4.72;;;2.78;;
48925;SDS011;39838;59.938;30.642;2024-03-08T09:41:46;3.85;;;2.83;;
48925;SDS011;39838;59.938;30.642;2024-03-08T09:44:14;4.72;;;2.90;;
48925;SDS011;39838;59.938;30.642;2024-03-08T09:46:43;5.18;;;2.85;;
48925;SDS011;39838;59.938;30.642;2024-03-08T09:49:13;4.25;;;3.00;;
48925;SDS011;39838;59.938;30.642;2024-03-08T09:51:40;4.30;;;2.83;;
48925;SDS011;39838;59.938;30.642;2024-03-08T09:54:08;6.03;;;2.70;;
48925;SDS011;39838;59.938;30.642;2024-03-08T09:56:35;4.07;;;2.40;;
48925;SDS011;39838;59.938;30.642;2024-03-08T09:59:03;4.10;;;2.60;;
48925;SDS011;39838;59.938;30.642;2024-03-08T10:01:59;3.40;;;2.50;;
48925;SDS011;39838;59.938;30.642;2024-03-08T10:04:28;4.70;;;3.10;;
48925;SDS011;39838;59.938;30.642;2024-03-08T10:06:57;5.45;;;2.90;;
48925;SDS011;39838;59.938;30.642;2024-03-08T10:09:25;4.72;;;2.60;;
48925;SDS011;39838;59.938;30.642;2024-03-08T10:11:53;4.25;;;2.58;;
48925;SDS011;39838;59.938;30.642;2024-03-08T10:14:24;4.50;;;2.40;;
48925;SDS011;39838;59.938;30.642;2024-03-08T10:16:53;3.78;;;2.50;;
48925;SDS011;39838;59.938;30.642;2024-03-08T10:19:27;3.65;;;2.33;;
48925;SDS011;39838;59.938;30.642;2024-03-08T10:21:56;3.78;;;2.53;;
48925;SDS011;39838;59.938;30.642;2024-03-08T10:24:24;2.47;;;2.25;;
48925;SDS011;39838;59.938;30.642;2024-03-08T10:26:52;7.13;;;2.60;;
48925;SDS011;39838;59.938;30.642;2024-03-08T10:29:21;5.30;;;3.10;;
48925;SDS011;39838;59.938;30.642;2024-03-08T10:31:49;7.68;;;4.60;;
48925;SDS011;39838;59.938;30.642;2024-03-08T10:34:17;3.90;;;2.58;;
48925;SDS011;39838;59.938;30.642;2024-03-08T10:36:50;5.35;;;3.05;;
48925;SDS011;39838;59.938;30.642;2024-03-08T10:39:21;4.18;;;2.30;;
48925;SDS011;39838;59.938;30.642;2024-03-08T10:41:52;3.00;;;2.20;;
48925;SDS011;39838;59.938;30.642;2024-03-08T10:47:08;4.95;;;2.78;;
48925;SDS011;39838;59.938;30.642;2024-03-08T10:49:44;3.40;;;2.38;;
48925;SDS011;39838;59.938;30.642;2024-03-08T10:52:20;4.97;;;2.92;;
48925;SDS011;39838;59.938;30.642;2024-03-08T10:54:47;5.53;;;2.70;;
48925;SDS011;39838;59.938;30.642;2024-03-08T10:57:17;2.47;;;2.05;;
48925;SDS011;39838;59.938;30.642;2024-03-08T10:59:47;3.53;;;2.28;;
48925;SDS011;39838;59.938;30.642;2024-03-08T11:02:15;3.33;;;2.25;;
48925;SDS011;39838;59.938;30.642;2024-03-08T11:04:49;4.22;;;2.15;;
48925;SDS011;39838;59.938;30.642;2024-03-08T11:07:19;2.30;;;2.10;;
48925;SDS011;39838;59.938;30.642;2024-03-08T11:09:48;3.67;;;2.50;;
48925;SDS011;39838;59.938;30.642;2024-03-08T11:12:21;2.72;;;2.30;;
48925;SDS011;39838;59.938;30.642;2024-03-08T11:15:02;5.55;;;2.35;;
48925;SDS011;39838;59.938;30.642;2024-03-08T11:17:44;4.57;;;2.40;;
48925;SDS011;39838;59.938;30.642;2024-03-08T11:20:14;2.88;;;2.22;;
48925;SDS011;39838;59.938;30.642;2024-03-08T11:22:50;3.88;;;2.40;;
48925;SDS011;39838;59.938;30.642;2024-03-08T11:28:13;2.60;;;1.85;;
48925;SDS011;39838;59.938;30.642;2024-03-08T11:30:43;2.22;;;2.03;;
48925;SDS011;39838;59.938;30.642;2024-03-08T11:33:13;3.50;;;2.30;;
48925;SDS011;39838;59.938;30.642;2024-03-08T11:35:42;2.83;;;1.80;;
48925;SDS011;39838;59.938;30.642;2024-03-08T11:38:13;1.95;;;1.70;;
48925;SDS011;39838;59.938;30.642;2024-03-08T11:40:45;2.35;;;2.05;;
48925;SDS011;39838;59.938;30.642;2024-03-08T11:43:15;2.78;;;1.90;;
48925;SDS011;39838;59.938;30.642;2024-03-08T11:45:44;4.18;;;2.28;;
48925;SDS011;39838;59.938;30.642;2024-03-08T11:48:12;3.53;;;2.20;;
48925;SDS011;39838;59.938;30.642;2024-03-08T11:50:39;3.45;;;2.25;;
48925;SDS011;39838;59.938;30.642;2024-03-08T11:53:08;3.40;;;2.30;;
48925;SDS011;39838;59.938;30.642;2024-03-08T11:55:38;3.65;;;2.00;;
48925;SDS011;39838;59.938;30.642;2024-03-08T11:58:07;3.17;;;2.13;;
48925;SDS011;39838;59.938;30.642;2024-03-08T12:00:36;2.35;;;1.90;;
48925;SDS011;39838;59.938;30.642;2024-03-08T12:03:04;2.15;;;1.70;;
48925;SDS011;39838;59.938;30.642;2024-03-08T12:05:32;3.10;;;2.00;;
48925;SDS011;39838;59.938;30.642;2024-03-08T12:08:00;2.65;;;2.05;;
48925;SDS011;39838;59.938;30.642;2024-03-08T12:10:28;4.03;;;2.55;;
48925;SDS011;39838;59.938;30.642;2024-03-08T12:12:57;2.38;;;1.90;;
48925;SDS011;39838;59.938;30.642;2024-03-08T12:15:28;4.55;;;2.20;;
48925;SDS011;39838;59.938;30.642;2024-03-08T12:17:58;3.15;;;2.20;;
48925;SDS011;39838;59.938;30.642;2024-03-08T12:20:26;3.95;;;2.47;;
48925;SDS011;39838;59.938;30.642;2024-03-08T12:22:57;2.80;;;2.10;;
48925;SDS011;39838;59.938;30.642;2024-03-08T12:25:29;2.30;;;1.77;;
48925;SDS011;39838;59.938;30.642;2024-03-08T12:28:08;2.15;;;1.70;;
48925;SDS011;39838;59.938;30.642;2024-03-08T12:30:44;2.83;;;2.10;;
48925;SDS011;39838;59.938;30.642;2024-03-08T12:33:13;2.30;;;1.90;;
48925;SDS011;39838;59.938;30.642;2024-03-08T12:35:49;2.20;;;2.00;;
48925;SDS011;39838;59.938;30.642;2024-03-08T12:38:19;2.17;;;1.88;;
48925;SDS011;39838;59.938;30.642;2024-03-08T12:40:50;2.63;;;1.88;;
48925;SDS011;39838;59.938;30.642;2024-03-08T12:43:23;2.30;;;1.95;;
48925;SDS011;39838;59.938;30.642;2024-03-08T12:45:51;3.53;;;1.70;;
48925;SDS011;39838;59.938;30.642;2024-03-08T12:48:20;2.65;;;1.70;;
48925;SDS011;39838;59.938;30.642;2024-03-08T12:50:47;2.40;;;1.80;;
48925;SDS011;39838;59.938;30.642;2024-03-08T12:53:17;2.22;;;1.92;;
48925;SDS011;39838;59.938;30.642;2024-03-08T12:55:44;3.42;;;2.30;;
48925;SDS011;39838;59.938;30.642;2024-03-08T12:58:15;5.72;;;3.10;;
48925;SDS011;39838;59.938;30.642;2024-03-08T13:00:55;7.15;;;3.63;;
48925;SDS011;39838;59.938;30.642;2024-03-08T13:03:25;6.30;;;4.03;;
48925;SDS011;39838;59.938;30.642;2024-03-08T13:05:53;5.55;;;3.60;;
48925;SDS011;39838;59.938;30.642;2024-03-08T13:08:22;5.50;;;3.67;;
48925;SDS011;39838;59.938;30.642;2024-03-08T13:10:51;4.45;;;2.97;;
48925;SDS011;39838;59.938;30.642;2024-03-08T13:13:19;5.20;;;3.17;;
48925;SDS011;39838;59.938;30.642;2024-03-08T13:15:46;6.22;;;2.75;;
48925;SDS011;39838;59.938;30.642;2024-03-08T13:18:15;3.58;;;2.65;;
48925;SDS011;39838;59.938;30.642;2024-03-08T13:20:43;3.90;;;2.33;;
48925;SDS011;39838;59.938;30.642;2024-03-08T13:23:14;4.30;;;2.50;;
48925;SDS011;39838;59.938;30.642;2024-03-08T13:25:43;3.28;;;2.53;;
48925;SDS011;39838;59.938;30.642;2024-03-08T13:28:13;3.17;;;2.30;;
48925;SDS011;39838;59.938;30.642;2024-03-08T13:30:43;4.70;;;2.35;;
48925;SDS011;39838;59.938;30.642;2024-03-08T13:33:11;4.25;;;2.42;;
48925;SDS011;39838;59.938;30.642;2024-03-08T13:35:40;3.55;;;2.25;;
48925;SDS011;39838;59.938;30.642;2024-03-08T13:38:08;2.97;;;2.25;;
48925;SDS011;39838;59.938;30.642;2024-03-08T13:40:38;3.50;;;2.30;;
48925;SDS011;39838;59.938;30.642;2024-03-08T13:43:06;3.75;;;2.47;;
48925;SDS011;39838;59.938;30.642;2024-03-08T13:45:33;3.22;;;2.42;;
48925;SDS011;39838;59.938;30.642;2024-03-08T13:48:03;3.53;;;2.47;;
48925;SDS011;39838;59.938;30.642;2024-03-08T13:50:32;3.53;;;2.40;;
48925;SDS011;39838;59.938;30.642;2024-03-08T13:53:03;3.95;;;2.63;;
48925;SDS011;39838;59.938;30.642;2024-03-08T13:55:30;3.40;;;2.47;;
48925;SDS011;39838;59.938;30.642;2024-03-08T13:57:59;3.70;;;2.58;;
48925;SDS011;39838;59.938;30.642;2024-03-08T14:00:26;3.83;;;2.75;;
48925;SDS011;39838;59.938;30.642;2024-03-08T14:02:58;3.58;;;2.42;;
48925;SDS011;39838;59.938;30.642;2024-03-08T14:05:26;4.88;;;2.90;;
48925;SDS011;39838;59.938;30.642;2024-03-08T14:07:53;3.53;;;2.70;;
48925;SDS011;39838;59.938;30.642;2024-03-08T14:10:22;5.68;;;2.60;;
48925;SDS011;39838;59.938;30.642;2024-03-08T14:12:50;4.60;;;2.60;;
48925;SDS011;39838;59.938;30.642;2024-03-08T14:15:17;6.40;;;2.92;;
48925;SDS011;39838;59.938;30.642;2024-03-08T14:17:51;3.63;;;2.50;;
48925;SDS011;39838;59.938;30.642;2024-03-08T14:20:19;4.53;;;2.83;;
48925;SDS011;39838;59.938;30.642;2024-03-08T14:22:51;4.20;;;2.60;;
48925;SDS011;39838;59.938;30.642;2024-03-08T14:25:18;3.85;;;2.65;;
48925;SDS011;39838;59.938;30.642;2024-03-08T14:27:47;4.50;;;2.60;;
48925;SDS011;39838;59.938;30.642;2024-03-08T14:30:15;4.03;;;2.70;;
48925;SDS011;39838;59.938;30.642;2024-03-08T14:32:57;6.63;;;2.67;;
48925;SDS011;39838;59.938;30.642;2024-03-08T14:35:25;4.90;;;2.80;;
48925;SDS011;39838;59.938;30.642;2024-03-08T14:37:52;3.67;;;2.40;;
48925;SDS011;39838;59.938;30.642;2024-03-08T14:40:19;4.25;;;2.70;;
48925;SDS011;39838;59.938;30.642;2024-03-08T14:42:49;3.90;;;2.42;;
48925;SDS011;39838;59.938;30.642;2024-03-08T14:45:17;2.10;;;1.95;;